sensor_id;sensor_type;location;lat;lon;timestamp;pressure;altitude;pressure_sealevel;temperature;humidity
23059;BME280;30585;51.502;7.218;2024-02-21T00:00:25;101349.94;;;7.88;83.46
23059;BME280;30585;51.502;7.218;2024-02-21T00:02:53;101340.94;;;7.89;83.53
23059;BME280;30585;51.502;7.218;2024-02-21T00:05:25;101342.69;;;7.91;83.68
23059;BME280;30585;51.502;7.218;2024-02-21T00:07:53;101318.94;;;7.81;83.74
23059;BME280;30585;51.502;7.218;2024-02-21T00:10:22;101333.03;;;7.86;83.99
23059;BME280;30585;51.502;7.218;2024-02-21T00:12:51;101332.22;;;7.84;84.05
23059;BME280;30585;51.502;7.218;2024-02-21T00:15:19;101322.19;;;7.88;84.12
23059;BME280;30585;51.502;7.218;2024-02-21T00:17:47;101329.41;;;7.87;84.25
23059;BME280;30585;51.502;7.218;2024-02-21T00:20:16;101305.44;;;7.83;84.43
23059;BME280;30585;51.502;7.218;2024-02-21T00:22:44;101304.63;;;7.81;84.57
23059;BME280;30585;51.502;7.218;2024-02-21T00:25:12;101310.72;;;7.84;84.65
23059;BME280;30585;51.502;7.218;2024-02-21T00:27:41;101292.72;;;7.86;84.31
23059;BME280;30585;51.502;7.218;2024-02-21T00:30:10;101287.56;;;7.82;84.76
23059;BME280;30585;51.502;7.218;2024-02-21T00:32:38;101286.56;;;7.84;84.32
23059;BME280;30585;51.502;7.218;2024-02-21T00:35:06;101269.72;;;7.81;84.42
23059;BME280;30585;51.502;7.218;2024-02-21T00:37:34;101270.44;;;7.84;84.41
23059;BME280;30585;51.502;7.218;2024-02-21T00:40:02;101272.25;;;7.84;84.31
23059;BME280;30585;51.502;7.218;2024-02-21T00:42:29;101270.59;;;7.81;84.29
23059;BME280;30585;51.502;7.218;2024-02-21T00:44:59;101266.78;;;7.85;84.38
23059;BME280;30585;51.502;7.218;2024-02-21T00:47:26;101271.38;;;7.83;84.67
23059;BME280;30585;51.502;7.218;2024-02-21T00:49:54;101270.28;;;7.87;84.32
23059;BME280;30585;51.502;7.218;2024-02-21T00:52:22;101260.69;;;7.82;84.35
23059;BME280;30585;51.502;7.218;2024-02-21T00:54:50;101272.88;;;7.89;84.28
23059;BME280;30585;51.502;7.218;2024-02-21T00:57:20;101254.47;;;7.81;84.15
23059;BME280;30585;51.502;7.218;2024-02-21T00:59:48;101247.97;;;7.85;84.68
23059;BME280;30585;51.502;7.218;2024-02-21T01:02:17;101244.44;;;7.85;84.56
23059;BME280;30585;51.502;7.218;2024-02-21T01:04:45;101247.97;;;7.85;84.23
23059;BME280;30585;51.502;7.218;2024-02-21T01:07:13;101232.09;;;7.81;84.40
23059;BME280;30585;51.502;7.218;2024-02-21T01:09:41;101240.16;;;7.81;84.58
23059;BME280;30585;51.502;7.218;2024-02-21T01:12:09;101231.22;;;7.80;84.50
23059;BME280;30585;51.502;7.218;2024-02-21T01:14:36;101238.34;;;7.81;84.47
23059;BME280;30585;51.502;7.218;2024-02-21T01:17:04;101228.22;;;7.86;84.36
23059;BME280;30585;51.502;7.218;2024-02-21T01:19:34;101224.59;;;7.87;84.29
23059;BME280;30585;51.502;7.218;2024-02-21T01:22:02;101221.28;;;7.82;84.51
23059;BME280;30585;51.502;7.218;2024-02-21T01:24:30;101220.25;;;7.85;84.42
23059;BME280;30585;51.502;7.218;2024-02-21T01:26:58;101224.59;;;7.87;84.13
23059;BME280;30585;51.502;7.218;2024-02-21T01:29:25;101205.16;;;7.82;84.73
23059;BME280;30585;51.502;7.218;2024-02-21T01:31:53;101199.84;;;7.81;84.52
23059;BME280;30585;51.502;7.218;2024-02-21T01:34:21;101192.56;;;7.83;84.32
23059;BME280;30585;51.502;7.218;2024-02-21T01:36:50;101196.28;;;7.80;84.35
23059;BME280;30585;51.502;7.218;2024-02-21T01:39:18;101190.91;;;7.80;84.13
23059;BME280;30585;51.502;7.218;2024-02-21T01:41:46;100981.91;;;6.52;84.27
23059;BME280;30585;51.502;7.218;2024-02-21T01:44:13;101154.09;;;7.48;84.68
23059;BME280;30585;51.502;7.218;2024-02-21T01:46:41;101197.31;;;7.78;84.75
23059;BME280;30585;51.502;7.218;2024-02-21T01:49:09;101141.47;;;7.50;84.11
23059;BME280;30585;51.502;7.218;2024-02-21T01:51:38;101202.69;;;7.78;84.25
23059;BME280;30585;51.502;7.218;2024-02-21T01:54:08;101148.91;;;7.45;84.26
23059;BME280;30585;51.502;7.218;2024-02-21T01:56:37;101165.31;;;7.56;84.49
23059;BME280;30585;51.502;7.218;2024-02-21T01:59:05;101186.50;;;7.79;84.48
23059;BME280;30585;51.502;7.218;2024-02-21T02:01:33;101036.75;;;6.81;84.54
23059;BME280;30585;51.502;7.218;2024-02-21T02:04:02;101179.53;;;7.75;84.47
23059;BME280;30585;51.502;7.218;2024-02-21T02:06:31;101173.59;;;7.69;84.58
23059;BME280;30585;51.502;7.218;2024-02-21T02:08:59;101178.59;;;7.76;84.48
23059;BME280;30585;51.502;7.218;2024-02-21T02:11:31;101172.25;;;7.77;84.48
23059;BME280;30585;51.502;7.218;2024-02-21T02:13:59;101160.81;;;7.74;84.45
23059;BME280;30585;51.502;7.218;2024-02-21T02:16:27;101175.03;;;7.76;84.65
23059;BME280;30585;51.502;7.218;2024-02-21T02:18:55;101168.88;;;7.74;85.08
23059;BME280;30585;51.502;7.218;2024-02-21T02:21:27;101162.63;;;7.73;84.91
23059;BME280;30585;51.502;7.218;2024-02-21T02:23:58;101149.91;;;7.77;84.55
23059;BME280;30585;51.502;7.218;2024-02-21T02:26:26;101147.22;;;7.77;84.63
23059;BME280;30585;51.502;7.218;2024-02-21T02:28:54;101141.75;;;7.78;84.87
23059;BME280;30585;51.502;7.218;2024-02-21T02:31:22;101141.91;;;7.75;85.14
23059;BME280;30585;51.502;7.218;2024-02-21T02:33:50;101131.25;;;7.74;85.11
23059;BME280;30585;51.502;7.218;2024-02-21T02:36:18;101122.09;;;7.78;85.05
23059;BME280;30585;51.502;7.218;2024-02-21T02:38:46;101117.09;;;7.70;85.37
23059;BME280;30585;51.502;7.218;2024-02-21T02:41:15;101111.13;;;7.65;85.45
23059;BME280;30585;51.502;7.218;2024-02-21T02:43:43;101100.38;;;7.65;85.42
23059;BME280;30585;51.502;7.218;2024-02-21T02:46:10;101084.34;;;7.64;85.46
23059;BME280;30585;51.502;7.218;2024-02-21T02:48:38;101092.56;;;7.61;85.71
23059;BME280;30585;51.502;7.218;2024-02-21T02:51:06;101092.50;;;7.62;85.44
23059;BME280;30585;51.502;7.218;2024-02-21T02:53:34;101101.66;;;7.58;85.67
23059;BME280;30585;51.502;7.218;2024-02-21T02:56:02;101086.25;;;7.62;85.22
23059;BME280;30585;51.502;7.218;2024-02-21T02:58:32;101090.75;;;7.61;85.11
23059;BME280;30585;51.502;7.218;2024-02-21T03:01:01;101060.91;;;7.33;85.36
23059;BME280;30585;51.502;7.218;2024-02-21T03:03:30;101099.59;;;7.63;85.47
23059;BME280;30585;51.502;7.218;2024-02-21T03:05:58;101039.53;;;7.14;85.48
23059;BME280;30585;51.502;7.218;2024-02-21T03:08:26;101104.97;;;7.63;85.43
23059;BME280;30585;51.502;7.218;2024-02-21T03:10:54;101015.84;;;6.88;85.52
23059;BME280;30585;51.502;7.218;2024-02-21T03:13:22;100918.19;;;6.40;85.69
23059;BME280;30585;51.502;7.218;2024-02-21T03:15:52;100941.13;;;6.63;85.47
23059;BME280;30585;51.502;7.218;2024-02-21T03:18:20;101096.84;;;7.65;85.55
23059;BME280;30585;51.502;7.218;2024-02-21T03:20:48;100924.75;;;6.51;85.39
23059;BME280;30585;51.502;7.218;2024-02-21T03:23:15;101074.47;;;7.64;85.34
23059;BME280;30585;51.502;7.218;2024-02-21T03:25:43;101077.94;;;7.66;85.25
23059;BME280;30585;51.502;7.218;2024-02-21T03:28:11;101068.06;;;7.67;85.16
23059;BME280;30585;51.502;7.218;2024-02-21T03:30:39;101071.00;;;7.62;85.38
23059;BME280;30585;51.502;7.218;2024-02-21T03:33:08;101061.13;;;7.63;85.44
23059;BME280;30585;51.502;7.218;2024-02-21T03:35:36;101009.84;;;7.34;85.09
23059;BME280;30585;51.502;7.218;2024-02-21T03:38:04;101063.72;;;7.64;85.12
23059;BME280;30585;51.502;7.218;2024-02-21T03:40:32;100966.69;;;7.04;84.84
23059;BME280;30585;51.502;7.218;2024-02-21T03:43:00;101016.31;;;7.30;85.43
23059;BME280;30585;51.502;7.218;2024-02-21T03:45:27;101042.41;;;7.61;85.57
23059;BME280;30585;51.502;7.218;2024-02-21T03:47:56;100852.53;;;6.31;85.21
23059;BME280;30585;51.502;7.218;2024-02-21T03:50:25;100979.69;;;7.12;85.36
23059;BME280;30585;51.502;7.218;2024-02-21T03:52:54;100953.22;;;6.71;85.01
23059;BME280;30585;51.502;7.218;2024-02-21T03:55:22;100980.66;;;7.11;84.62
23059;BME280;30585;51.502;7.218;2024-02-21T03:57:50;100979.66;;;6.96;84.91
23059;BME280;30585;51.502;7.218;2024-02-21T04:00:18;100897.75;;;6.37;84.47
23059;BME280;30585;51.502;7.218;2024-02-21T04:02:46;100865.28;;;6.26;84.37
23059;BME280;30585;51.502;7.218;2024-02-21T04:05:15;101089.38;;;7.70;85.07
23059;BME280;30585;51.502;7.218;2024-02-21T04:07:45;101083.91;;;7.71;84.66
23059;BME280;30585;51.502;7.218;2024-02-21T04:10:12;100965.44;;;6.94;84.70
23059;BME280;30585;51.502;7.218;2024-02-21T04:12:40;101055.69;;;7.47;84.98
23059;BME280;30585;51.502;7.218;2024-02-21T04:15:08;100881.59;;;6.56;84.58
23059;BME280;30585;51.502;7.218;2024-02-21T04:17:37;101020.50;;;7.36;84.93
23059;BME280;30585;51.502;7.218;2024-02-21T04:20:05;101081.31;;;7.70;84.82
23059;BME280;30585;51.502;7.218;2024-02-21T04:22:35;100965.00;;;7.02;84.59
23059;BME280;30585;51.502;7.218;2024-02-21T04:25:05;101077.44;;;7.75;84.39
23059;BME280;30585;51.502;7.218;2024-02-21T04:27:33;101064.97;;;7.74;84.52
23059;BME280;30585;51.502;7.218;2024-02-21T04:30:01;101065.59;;;7.79;84.44
23059;BME280;30585;51.502;7.218;2024-02-21T04:32:28;100873.06;;;6.65;84.58
23059;BME280;30585;51.502;7.218;2024-02-21T04:34:56;100971.69;;;7.28;84.59
23059;BME280;30585;51.502;7.218;2024-02-21T04:37:24;101031.19;;;7.53;84.21
23059;BME280;30585;51.502;7.218;2024-02-21T04:39:52;101002.69;;;7.17;84.39
23059;BME280;30585;51.502;7.218;2024-02-21T04:42:22;101053.59;;;7.69;84.14
23059;BME280;30585;51.502;7.218;2024-02-21T04:44:49;100895.09;;;6.55;84.29
23059;BME280;30585;51.502;7.218;2024-02-21T04:47:17;100917.38;;;6.90;84.31
23059;BME280;30585;51.502;7.218;2024-02-21T04:49:46;100825.53;;;6.34;83.34
23059;BME280;30585;51.502;7.218;2024-02-21T04:52:14;101051.00;;;7.68;83.54
23059;BME280;30585;51.502;7.218;2024-02-21T04:54:42;101049.00;;;7.71;83.51
23059;BME280;30585;51.502;7.218;2024-02-21T04:57:10;100976.97;;;7.29;83.42
23059;BME280;30585;51.502;7.218;2024-02-21T04:59:39;101043.72;;;7.70;83.06
23059;BME280;30585;51.502;7.218;2024-02-21T05:02:06;101046.22;;;7.73;82.69
23059;BME280;30585;51.502;7.218;2024-02-21T05:04:37;101044.56;;;7.70;83.05
23059;BME280;30585;51.502;7.218;2024-02-21T05:07:06;101041.88;;;7.70;83.02
23059;BME280;30585;51.502;7.218;2024-02-21T05:09:34;101039.91;;;7.74;82.42
23059;BME280;30585;51.502;7.218;2024-02-21T05:12:03;101039.91;;;7.74;82.85
23059;BME280;30585;51.502;7.218;2024-02-21T05:14:30;101047.81;;;7.77;82.23
23059;BME280;30585;51.502;7.218;2024-02-21T05:17:00;101039.66;;;7.78;81.74
23059;BME280;30585;51.502;7.218;2024-02-21T05:19:27;101032.31;;;7.82;81.94
23059;BME280;30585;51.502;7.218;2024-02-21T05:21:55;101038.78;;;7.78;82.33
23059;BME280;30585;51.502;7.218;2024-02-21T05:24:23;101003.78;;;7.64;82.35
23059;BME280;30585;51.502;7.218;2024-02-21T05:26:51;101037.16;;;7.75;81.52
23059;BME280;30585;51.502;7.218;2024-02-21T05:29:19;101007.03;;;7.53;82.00
23059;BME280;30585;51.502;7.218;2024-02-21T05:31:57;100959.69;;;7.35;81.97
23059;BME280;30585;51.502;7.218;2024-02-21T05:34:26;101027.44;;;7.73;82.58
23059;BME280;30585;51.502;7.218;2024-02-21T05:36:55;101031.16;;;7.70;82.27
23059;BME280;30585;51.502;7.218;2024-02-21T05:39:24;101017.56;;;7.73;82.33
23059;BME280;30585;51.502;7.218;2024-02-21T05:41:52;101008.28;;;7.63;82.54
23059;BME280;30585;51.502;7.218;2024-02-21T05:44:20;101000.47;;;7.74;82.00
23059;BME280;30585;51.502;7.218;2024-02-21T05:46:49;100994.06;;;7.77;82.22
23059;BME280;30585;51.502;7.218;2024-02-21T05:49:16;101004.91;;;7.75;81.48
23059;BME280;30585;51.502;7.218;2024-02-21T05:51:46;101005.69;;;7.77;81.14
23059;BME280;30585;51.502;7.218;2024-02-21T05:54:14;101005.16;;;7.71;81.31
23059;BME280;30585;51.502;7.218;2024-02-21T05:56:44;100995.09;;;7.74;81.44
23059;BME280;30585;51.502;7.218;2024-02-21T05:59:12;100998.41;;;7.79;81.53
23059;BME280;30585;51.502;7.218;2024-02-21T06:01:40;100997.78;;;7.74;81.65
23059;BME280;30585;51.502;7.218;2024-02-21T06:04:07;100993.22;;;7.76;81.49
23059;BME280;30585;51.502;7.218;2024-02-21T06:06:35;100991.47;;;7.75;81.29
23059;BME280;30585;51.502;7.218;2024-02-21T06:09:05;100985.41;;;7.72;81.40
23059;BME280;30585;51.502;7.218;2024-02-21T06:11:33;100941.75;;;7.35;81.43
23059;BME280;30585;51.502;7.218;2024-02-21T06:14:04;100981.75;;;7.73;80.88
23059;BME280;30585;51.502;7.218;2024-02-21T06:16:32;100900.00;;;7.30;81.04
23059;BME280;30585;51.502;7.218;2024-02-21T06:19:00;100877.78;;;7.10;81.57
23059;BME280;30585;51.502;7.218;2024-02-21T06:21:29;100966.34;;;7.76;81.21
23059;BME280;30585;51.502;7.218;2024-02-21T06:23:58;100954.19;;;7.69;80.74
23059;BME280;30585;51.502;7.218;2024-02-21T06:26:27;100791.28;;;6.57;80.85
23059;BME280;30585;51.502;7.218;2024-02-21T06:28:55;100977.34;;;7.72;80.46
23059;BME280;30585;51.502;7.218;2024-02-21T06:31:23;100957.34;;;7.77;80.73
23059;BME280;30585;51.502;7.218;2024-02-21T06:33:51;100913.97;;;7.52;80.62
23059;BME280;30585;51.502;7.218;2024-02-21T06:36:20;100952.81;;;7.78;80.36
23059;BME280;30585;51.502;7.218;2024-02-21T06:38:48;100933.06;;;7.79;80.47
23059;BME280;30585;51.502;7.218;2024-02-21T06:41:16;100895.19;;;7.52;80.19
23059;BME280;30585;51.502;7.218;2024-02-21T06:43:46;100930.47;;;7.77;80.48
23059;BME280;30585;51.502;7.218;2024-02-21T06:46:23;100871.97;;;7.51;80.24
23059;BME280;30585;51.502;7.218;2024-02-21T06:48:52;100939.06;;;7.84;80.44
23059;BME280;30585;51.502;7.218;2024-02-21T06:51:20;100721.69;;;6.55;80.26
23059;BME280;30585;51.502;7.218;2024-02-21T06:53:48;100702.53;;;6.45;79.86
23059;BME280;30585;51.502;7.218;2024-02-21T06:56:16;100931.06;;;7.82;79.46
23059;BME280;30585;51.502;7.218;2024-02-21T06:58:44;100942.53;;;7.86;79.66
23059;BME280;30585;51.502;7.218;2024-02-21T07:01:13;100937.16;;;7.86;79.70
23059;BME280;30585;51.502;7.218;2024-02-21T07:03:41;100929.19;;;7.84;80.08
23059;BME280;30585;51.502;7.218;2024-02-21T07:06:09;100935.34;;;7.86;79.81
23059;BME280;30585;51.502;7.218;2024-02-21T07:08:37;100939.59;;;7.91;79.72
23059;BME280;30585;51.502;7.218;2024-02-21T07:11:05;100936.13;;;7.88;80.04
23059;BME280;30585;51.502;7.218;2024-02-21T07:13:33;100934.28;;;7.89;79.31
23059;BME280;30585;51.502;7.218;2024-02-21T07:16:01;100935.16;;;7.89;79.71
23059;BME280;30585;51.502;7.218;2024-02-21T07:18:30;100935.16;;;7.89;79.35
23059;BME280;30585;51.502;7.218;2024-02-21T07:20:58;100938.44;;;7.95;79.62
23059;BME280;30585;51.502;7.218;2024-02-21T07:23:26;100919.28;;;7.85;79.37
23059;BME280;30585;51.502;7.218;2024-02-21T07:25:53;100933.16;;;7.93;79.12
23059;BME280;30585;51.502;7.218;2024-02-21T07:28:21;100940.41;;;7.91;79.54
23059;BME280;30585;51.502;7.218;2024-02-21T07:30:49;100779.88;;;7.02;79.41
23059;BME280;30585;51.502;7.218;2024-02-21T07:33:17;100931.16;;;7.97;79.63
23059;BME280;30585;51.502;7.218;2024-02-21T07:35:46;100927.69;;;7.95;79.13
23059;BME280;30585;51.502;7.218;2024-02-21T07:38:14;100925.00;;;7.95;79.88
23059;BME280;30585;51.502;7.218;2024-02-21T07:40:44;100912.25;;;7.98;79.30
23059;BME280;30585;51.502;7.218;2024-02-21T07:43:12;100959.69;;;7.99;79.19
23059;BME280;30585;51.502;7.218;2024-02-21T07:45:40;100910.34;;;8.00;78.58
23059;BME280;30585;51.502;7.218;2024-02-21T07:48:08;100920.06;;;8.03;79.18
23059;BME280;30585;51.502;7.218;2024-02-21T07:50:36;100914.44;;;8.07;78.74
23059;BME280;30585;51.502;7.218;2024-02-21T07:53:05;100917.19;;;8.06;78.88
23059;BME280;30585;51.502;7.218;2024-02-21T07:55:33;100905.31;;;8.10;78.38
23059;BME280;30585;51.502;7.218;2024-02-21T07:58:01;100906.97;;;8.12;78.47
23059;BME280;30585;51.502;7.218;2024-02-21T08:00:29;100903.91;;;8.18;78.29
23059;BME280;30585;51.502;7.218;2024-02-21T08:02:57;100898.44;;;8.20;78.49
23059;BME280;30585;51.502;7.218;2024-02-21T08:05:24;100889.59;;;8.18;78.83
23059;BME280;30585;51.502;7.218;2024-02-21T08:07:52;100726.31;;;7.00;78.13
23059;BME280;30585;51.502;7.218;2024-02-21T08:10:25;100878.06;;;8.16;78.53
23059;BME280;30585;51.502;7.218;2024-02-21T08:12:53;100879.00;;;8.15;78.61
23059;BME280;30585;51.502;7.218;2024-02-21T08:15:21;100882.78;;;8.12;79.10
23059;BME280;30585;51.502;7.218;2024-02-21T08:17:52;100871.63;;;8.18;78.64
23059;BME280;30585;51.502;7.218;2024-02-21T08:20:20;100787.22;;;7.77;78.33
23059;BME280;30585;51.502;7.218;2024-02-21T08:22:48;100860.88;;;8.18;78.99
23059;BME280;30585;51.502;7.218;2024-02-21T08:25:16;100879.28;;;8.26;78.77
23059;BME280;30585;51.502;7.218;2024-02-21T08:27:45;100856.19;;;8.22;78.93
23059;BME280;30585;51.502;7.218;2024-02-21T08:30:13;100866.97;;;8.22;78.66
23059;BME280;30585;51.502;7.218;2024-02-21T08:32:41;100853.34;;;8.25;78.63
23059;BME280;30585;51.502;7.218;2024-02-21T08:35:09;100856.91;;;8.26;78.42
23059;BME280;30585;51.502;7.218;2024-02-21T08:37:37;100843.03;;;8.33;77.95
23059;BME280;30585;51.502;7.218;2024-02-21T08:40:04;100823.34;;;8.17;77.77
23059;BME280;30585;51.502;7.218;2024-02-21T08:42:35;100846.59;;;8.34;77.56
23059;BME280;30585;51.502;7.218;2024-02-21T08:45:06;100839.31;;;8.36;77.90
23059;BME280;30585;51.502;7.218;2024-02-21T08:47:34;100835.75;;;8.35;77.30
23059;BME280;30585;51.502;7.218;2024-02-21T08:50:03;100833.72;;;8.39;77.42
23059;BME280;30585;51.502;7.218;2024-02-21T08:52:44;100835.53;;;8.38;77.95
23059;BME280;30585;51.502;7.218;2024-02-21T08:55:12;100854.00;;;8.44;77.88
23059;BME280;30585;51.502;7.218;2024-02-21T08:57:40;100838.44;;;8.35;77.95
23059;BME280;30585;51.502;7.218;2024-02-21T09:00:10;100836.16;;;8.28;79.24
23059;BME280;30585;51.502;7.218;2024-02-21T09:02:40;100842.66;;;8.23;79.20
23059;BME280;30585;51.502;7.218;2024-02-21T09:05:09;100828.88;;;8.30;78.81
23059;BME280;30585;51.502;7.218;2024-02-21T09:07:37;100815.34;;;8.31;79.45
23059;BME280;30585;51.502;7.218;2024-02-21T09:10:06;100817.34;;;8.28;79.63
23059;BME280;30585;51.502;7.218;2024-02-21T09:12:33;100804.84;;;8.27;78.91
23059;BME280;30585;51.502;7.218;2024-02-21T09:15:01;100807.63;;;8.25;79.10
23059;BME280;30585;51.502;7.218;2024-02-21T09:17:31;100806.25;;;8.18;79.52
23059;BME280;30585;51.502;7.218;2024-02-21T09:19:59;100768.69;;;8.02;79.65
23059;BME280;30585;51.502;7.218;2024-02-21T09:22:30;100808.84;;;8.19;79.75
23059;BME280;30585;51.502;7.218;2024-02-21T09:25:01;100802.53;;;8.20;79.59
23059;BME280;30585;51.502;7.218;2024-02-21T09:27:30;100804.91;;;8.11;79.64
23059;BME280;30585;51.502;7.218;2024-02-21T09:29:58;100795.22;;;8.08;80.10
23059;BME280;30585;51.502;7.218;2024-02-21T09:32:26;100809.34;;;8.12;80.75
23059;BME280;30585;51.502;7.218;2024-02-21T09:34:55;100794.34;;;8.08;80.41
23059;BME280;30585;51.502;7.218;2024-02-21T09:37:27;100742.19;;;7.66;80.95
23059;BME280;30585;51.502;7.218;2024-02-21T09:39:55;100786.03;;;7.97;80.60
23059;BME280;30585;51.502;7.218;2024-02-21T09:42:30;100763.72;;;7.80;81.11
23059;BME280;30585;51.502;7.218;2024-02-21T09:45:02;100789.59;;;7.97;80.55
23059;BME280;30585;51.502;7.218;2024-02-21T09:47:39;100692.59;;;7.42;81.16
23059;BME280;30585;51.502;7.218;2024-02-21T09:50:10;100783.81;;;7.89;80.95
23059;BME280;30585;51.502;7.218;2024-02-21T09:52:39;100770.19;;;7.92;81.06
23059;BME280;30585;51.502;7.218;2024-02-21T09:55:08;100765.91;;;7.74;80.84
23059;BME280;30585;51.502;7.218;2024-02-21T09:57:39;100731.19;;;7.55;81.37
23059;BME280;30585;51.502;7.218;2024-02-21T10:00:08;100800.59;;;7.93;81.37
23059;BME280;30585;51.502;7.218;2024-02-21T10:02:36;100766.06;;;7.71;81.41
23059;BME280;30585;51.502;7.218;2024-02-21T10:05:06;100787.38;;;7.89;81.45
23059;BME280;30585;51.502;7.218;2024-02-21T10:07:36;100778.44;;;7.89;81.41
23059;BME280;30585;51.502;7.218;2024-02-21T10:10:06;100793.31;;;7.95;81.57
23059;BME280;30585;51.502;7.218;2024-02-21T10:12:34;100782.31;;;7.99;80.90
23059;BME280;30585;51.502;7.218;2024-02-21T10:15:02;100784.63;;;8.05;81.24
23059;BME280;30585;51.502;7.218;2024-02-21T10:17:31;100779.84;;;8.10;80.77
23059;BME280;30585;51.502;7.218;2024-02-21T10:20:07;100765.72;;;8.07;81.22
23059;BME280;30585;51.502;7.218;2024-02-21T10:22:37;100760.19;;;8.10;81.24
23059;BME280;30585;51.502;7.218;2024-02-21T10:25:07;100759.41;;;8.22;81.11
23059;BME280;30585;51.502;7.218;2024-02-21T10:27:36;100657.03;;;7.52;80.13
23059;BME280;30585;51.502;7.218;2024-02-21T10:30:05;100754.34;;;8.32;81.08
23059;BME280;30585;51.502;7.218;2024-02-21T10:32:36;100690.84;;;8.01;80.09
23059;BME280;30585;51.502;7.218;2024-02-21T10:35:04;100750.84;;;8.45;79.48
23059;BME280;30585;51.502;7.218;2024-02-21T10:37:32;100753.72;;;8.42;79.47
23059;BME280;30585;51.502;7.218;2024-02-21T10:40:03;100750.84;;;8.45;78.96
23059;BME280;30585;51.502;7.218;2024-02-21T10:42:33;100740.22;;;8.58;78.98
23059;BME280;30585;51.502;7.218;2024-02-21T10:45:05;100744.50;;;8.61;77.75
23059;BME280;30585;51.502;7.218;2024-02-21T10:47:35;100728.56;;;8.57;77.08
23059;BME280;30585;51.502;7.218;2024-02-21T10:50:07;100729.44;;;8.58;76.53
23059;BME280;30585;51.502;7.218;2024-02-21T10:52:48;100713.75;;;8.65;76.39
23059;BME280;30585;51.502;7.218;2024-02-21T10:55:26;100722.50;;;8.68;75.39
23059;BME280;30585;51.502;7.218;2024-02-21T10:57:57;100714.16;;;8.73;75.26
23059;BME280;30585;51.502;7.218;2024-02-21T11:00:26;100700.59;;;8.74;74.52
23059;BME280;30585;51.502;7.218;2024-02-21T11:02:57;100697.25;;;8.71;74.03
23059;BME280;30585;51.502;7.218;2024-02-21T11:05:26;100678.69;;;8.80;74.07
23059;BME280;30585;51.502;7.218;2024-02-21T11:07:55;100678.56;;;8.96;74.14
23059;BME280;30585;51.502;7.218;2024-02-21T11:10:25;100673.75;;;9.01;74.43
23059;BME280;30585;51.502;7.218;2024-02-21T11:12:54;100650.16;;;8.78;73.05
23059;BME280;30585;51.502;7.218;2024-02-21T11:15:32;100662.13;;;9.01;73.34
23059;BME280;30585;51.502;7.218;2024-02-21T11:18:00;100524.38;;;8.26;73.42
23059;BME280;30585;51.502;7.218;2024-02-21T11:20:35;100623.38;;;9.03;73.30
23059;BME280;30585;51.502;7.218;2024-02-21T11:23:04;100617.53;;;9.09;72.58
23059;BME280;30585;51.502;7.218;2024-02-21T11:25:33;100392.53;;;7.60;72.81
23059;BME280;30585;51.502;7.218;2024-02-21T11:28:02;100512.56;;;8.43;72.64
23059;BME280;30585;51.502;7.218;2024-02-21T11:30:30;100588.84;;;9.22;72.01
23059;BME280;30585;51.502;7.218;2024-02-21T11:33:03;100575.78;;;9.16;72.95
23059;BME280;30585;51.502;7.218;2024-02-21T11:35:34;100577.13;;;9.36;73.73
23059;BME280;30585;51.502;7.218;2024-02-21T11:38:09;100566.59;;;9.46;72.74
23059;BME280;30585;51.502;7.218;2024-02-21T11:40:44;100522.59;;;9.20;71.46
23059;BME280;30585;51.502;7.218;2024-02-21T11:43:12;100526.59;;;9.27;72.43
23059;BME280;30585;51.502;7.218;2024-02-21T11:45:40;100456.53;;;8.89;72.22
23059;BME280;30585;51.502;7.218;2024-02-21T11:48:08;100352.06;;;8.43;72.49
23059;BME280;30585;51.502;7.218;2024-02-21T11:50:36;100454.09;;;9.11;72.45
23059;BME280;30585;51.502;7.218;2024-02-21T11:53:06;100501.31;;;9.42;71.48
23059;BME280;30585;51.502;7.218;2024-02-21T11:55:34;100362.53;;;8.61;70.07
23059;BME280;30585;51.502;7.218;2024-02-21T11:58:03;100497.22;;;9.62;70.42
23059;BME280;30585;51.502;7.218;2024-02-21T12:00:31;100509.78;;;9.74;70.99
23059;BME280;30585;51.502;7.218;2024-02-21T12:02:59;100495.16;;;9.66;69.38
23059;BME280;30585;51.502;7.218;2024-02-21T12:05:28;100484.28;;;9.67;68.58
23059;BME280;30585;51.502;7.218;2024-02-21T12:07:57;100461.84;;;9.67;70.15
23059;BME280;30585;51.502;7.218;2024-02-21T12:10:26;100451.47;;;9.86;69.56
23059;BME280;30585;51.502;7.218;2024-02-21T12:13:06;100450.72;;;9.84;69.83
23059;BME280;30585;51.502;7.218;2024-02-21T12:15:34;100457.19;;;9.81;68.80
23059;BME280;30585;51.502;7.218;2024-02-21T12:18:03;100387.50;;;9.64;69.63
23059;BME280;30585;51.502;7.218;2024-02-21T12:20:32;100444.97;;;10.01;70.40
23059;BME280;30585;51.502;7.218;2024-02-21T12:23:00;100431.69;;;9.98;68.53
23059;BME280;30585;51.502;7.218;2024-02-21T12:25:28;100430.34;;;9.92;66.88
23059;BME280;30585;51.502;7.218;2024-02-21T12:27:56;100406.34;;;10.01;68.82
23059;BME280;30585;51.502;7.218;2024-02-21T12:30:26;100408.06;;;10.02;68.51
23059;BME280;30585;51.502;7.218;2024-02-21T12:32:53;100389.63;;;10.08;67.88
23059;BME280;30585;51.502;7.218;2024-02-21T12:35:21;100369.84;;;10.20;69.25
23059;BME280;30585;51.502;7.218;2024-02-21T12:37:49;100376.84;;;10.23;68.26
23059;BME280;30585;51.502;7.218;2024-02-21T12:40:17;100366.84;;;10.12;67.59
23059;BME280;30585;51.502;7.218;2024-02-21T12:42:45;100351.31;;;10.16;66.88
23059;BME280;30585;51.502;7.218;2024-02-21T12:45:13;100350.38;;;10.04;66.04
23059;BME280;30585;51.502;7.218;2024-02-21T12:47:45;100350.69;;;10.12;66.83
23059;BME280;30585;51.502;7.218;2024-02-21T12:50:13;100345.47;;;10.22;66.20
23059;BME280;30585;51.502;7.218;2024-02-21T12:52:41;100354.72;;;10.31;65.05
23059;BME280;30585;51.502;7.218;2024-02-21T12:55:09;100352.34;;;10.26;65.67
23059;BME280;30585;51.502;7.218;2024-02-21T12:57:38;100357.75;;;10.26;65.21
23059;BME280;30585;51.502;7.218;2024-02-21T13:00:07;100358.56;;;10.39;66.42
23059;BME280;30585;51.502;7.218;2024-02-21T13:02:37;100337.28;;;10.58;68.15
23059;BME280;30585;51.502;7.218;2024-02-21T13:05:09;100339.00;;;10.59;63.88
23059;BME280;30585;51.502;7.218;2024-02-21T13:07:38;100338.09;;;10.48;64.79